Details From YPDN - Darwin Intl
To WIHH - Jakarta Halim Perdanakusuma Intl
Flight Number -
Tags Generated
Created
Modified
Stats Distance 1,468 nm / 2,719 km
Max Altitude 0 ft / 0 m
Waypoints 4
Social Downloads 1
Likes 0
Share VATSIM

Download

Looking for another format? Having issues loading an existing format? Contact us
Advertisement - Login to hide

Notes

Generated

Route

YPDN SLO HLM WIHH

ID Type Via Altitude Latitude Longitude Leg Dist Tot Dist Heading (true) Name
O YPDN APT - 0 ft / 0 m -12.40889˚ 130.87067˚ - 0 nm - -
SLO VOR - 0 ft / 0 m -7.50772˚ 110.79441˚ 1222 nm 1222 nm 282° / 286° SOLO VOR-DME
HLM VOR - 0 ft / 0 m -6.27194˚ 106.88698˚ 244 nm 1467 nm 287° / 288° HALIM PERDANAKUSUMA VOR-DME
O WIHH APT - 0 ft / 0 m -6.27223˚ 106.87877˚ 0 nm 1467 nm 268° / 268° -

Altitude Profile

Advertisement - Login to hide

Weather


0- 5 10 15 20 25 30 35+ Temperature / ° C

Clouds and Precipitation
Forecast for 2017-12-18 06:00 UTC. Updated 25 minutes ago

Ground ~20,000 ft ~40,000 ft Winds

YPDN

Details ICAO YPDN (DRW)
Name Darwin Intl
Region Australia
Timezone Australia/Darwin (UTC+9.5)
Stats Elevation 102 ft / 31 m (AMSL)
Location -12.415064° 130.875278°
Runways 2
Magnetic Variation 2.669° E

METAR

YPDN 180130Z 32007KT 9999 FEW038 SCT350 33/22 Q1008 NOSIG

Decode

TAF

TAF YPDN 172309Z 1800/1906 33008KT 9999 SCT020 PROB30 TEMPO 1804/1810 VRB20G35KT 1000 TSRA BKN010 SCT020CB

Decode

Departure Runways

ID Width Length Bearing (true) Bearing (mag) Surface Threshold Offset Overrun Length
11 197 ft / 60 m 10,997 ft / 3,352 m 109.02° 106.35° Asphalt 0 ft / 0 m 0 ft / 0 m
18 98 ft / 30 m 5,029 ft / 1,533 m 179.85° 177.18° Asphalt 0 ft / 0 m 0 ft / 0 m
29 197 ft / 60 m 10,997 ft / 3,352 m 289.02° 286.35° Asphalt 0 ft / 0 m 0 ft / 0 m
36 98 ft / 30 m 5,029 ft / 1,533 m 359.85° 357.18° Asphalt 0 ft / 0 m 0 ft / 0 m

WIHH

Details ICAO WIHH (HLP)
Name Jakarta Halim Perdanakusuma Intl
Region Indonesia
Timezone Asia/Jakarta (UTC+7.0)
Stats Elevation 84 ft / 26 m (AMSL)
Location -6.266608° 106.891117°
Runways 1
Magnetic Variation 0.650° E

METAR

WIHH 180130Z 30005KT 7000 SCT012 27/24 Q1012 RMK RA TO SW

Decode

TAF

Not found

Destination Runways

ID Width Length Bearing (true) Bearing (mag) Surface Threshold Offset Overrun Length
06 148 ft / 45 m 9,855 ft / 3,004 m 65.38° 64.73° Asphalt 0 ft / 0 m 0 ft / 0 m
24 148 ft / 45 m 9,855 ft / 3,004 m 245.38° 244.73° Asphalt 650 ft / 198 m 0 ft / 0 m

Approach Navaids

Runway Type Ident Frequency Range Bearing (true) Bearing (mag) Slope Elevation
24 Localiser IHAL 111.70 MHz 18 nm / 33 km 245.32° 244.67° - 87 ft / 27 m (AMSL)
24 Glidescope IHAL 111.70 MHz 10 nm / 19 km 245.38° 244.73° 3.00° 90 ft / 27 m (AMSL)
24 DME IHAL 111.70 MHz 18 nm / 33 km - - - 88 ft / 27 m (AMSL)